createdAt,value
2023-01-25T00:01:20.949Z,3.39
2023-01-25T00:03:50.732Z,3.41
2023-01-25T00:06:23.448Z,3.42
2023-01-25T00:08:53.545Z,3.46
2023-01-25T00:11:23.417Z,3.48
2023-01-25T00:13:56.164Z,3.47
2023-01-25T00:16:26.889Z,3.48
2023-01-25T00:18:56.665Z,3.45
2023-01-25T00:21:30.299Z,3.42
2023-01-25T00:24:00.185Z,3.43
2023-01-25T00:26:30.181Z,3.45
2023-01-25T00:29:00.330Z,3.46
2023-01-25T00:31:40.227Z,3.48
2023-01-25T00:34:30.180Z,3.47
2023-01-25T00:37:05.935Z,3.47
2023-01-25T00:39:35.793Z,3.51
2023-01-25T00:42:05.781Z,3.51
2023-01-25T00:44:35.643Z,3.46
2023-01-25T00:47:05.507Z,3.41
2023-01-25T00:49:35.916Z,3.30
2023-01-25T00:52:08.692Z,3.25
2023-01-25T00:54:38.548Z,3.24
2023-01-25T00:57:08.563Z,3.19
2023-01-25T00:59:38.778Z,3.19
2023-01-25T01:02:08.660Z,3.20
2023-01-25T01:04:38.541Z,3.25
2023-01-25T01:07:11.126Z,3.31
2023-01-25T01:09:41.195Z,3.29
2023-01-25T01:12:10.999Z,3.32
2023-01-25T01:14:41.165Z,3.30
2023-01-25T01:17:11.236Z,3.24
2023-01-25T01:19:41.255Z,3.23
2023-01-25T01:22:13.776Z,3.17
2023-01-25T01:24:43.650Z,3.18
2023-01-25T01:27:13.563Z,3.18
2023-01-25T01:29:43.315Z,3.17
2023-01-25T01:32:13.343Z,3.13
2023-01-25T01:34:43.871Z,3.01
2023-01-25T01:37:16.197Z,3.03
2023-01-25T01:39:46.099Z,3.04
2023-01-25T01:42:16.230Z,3.10
2023-01-25T01:44:51.443Z,3.12
2023-01-25T01:47:25.496Z,3.15
2023-01-25T01:50:00.403Z,3.16
2023-01-25T01:52:36.673Z,3.18
2023-01-25T01:55:11.950Z,3.20
2023-01-25T01:57:46.166Z,3.20
2023-01-25T02:00:19.416Z,3.19
2023-01-25T02:02:50.866Z,3.17
2023-01-25T02:05:25.600Z,3.16
2023-01-25T02:08:01.954Z,3.12
2023-01-25T02:10:33.385Z,3.05
2023-01-25T02:13:03.444Z,3.06
2023-01-25T02:15:45.295Z,3.03
2023-01-25T02:18:16.268Z,2.99
2023-01-25T02:20:48.227Z,3.00
2023-01-25T02:23:29.778Z,2.95
2023-01-25T02:26:06.004Z,2.93
2023-01-25T02:28:41.521Z,2.95
2023-01-25T02:31:11.578Z,3.00
2023-01-25T02:33:41.533Z,3.01
2023-01-25T02:36:23.251Z,2.86
2023-01-25T02:38:57.538Z,2.83
2023-01-25T02:41:37.104Z,2.83
2023-01-25T02:44:09.538Z,2.87
2023-01-25T02:46:41.114Z,2.83
2023-01-25T02:49:12.708Z,2.81
2023-01-25T02:51:44.855Z,2.75
2023-01-25T02:54:15.743Z,2.78
2023-01-25T02:56:48.283Z,2.80
2023-01-25T02:59:19.140Z,2.75
2023-01-25T03:01:49.159Z,2.75
2023-01-25T03:04:19.065Z,2.76
2023-01-25T03:06:48.794Z,2.79
2023-01-25T03:09:18.818Z,2.78
2023-01-25T03:11:51.173Z,2.77
2023-01-25T03:14:21.040Z,2.73
2023-01-25T03:16:50.850Z,2.73
2023-01-25T03:19:20.632Z,2.73
2023-01-25T03:21:50.368Z,2.79
2023-01-25T03:24:20.271Z,2.85
2023-01-25T03:27:05.147Z,2.89
2023-01-25T03:29:35.158Z,2.91
2023-01-25T03:32:05.453Z,2.91
2023-01-25T03:34:35.319Z,2.91
2023-01-25T03:37:05.283Z,2.89
2023-01-25T03:39:35.109Z,2.89
2023-01-25T03:42:08.370Z,2.86
2023-01-25T03:44:38.094Z,2.80
2023-01-25T03:47:08.033Z,2.75
2023-01-25T03:49:37.949Z,2.74
2023-01-25T03:52:08.368Z,2.76
2023-01-25T03:54:41.018Z,2.74
2023-01-25T03:57:13.429Z,2.74
2023-01-25T03:59:43.472Z,2.74
2023-01-25T04:02:14.818Z,2.65
2023-01-25T04:04:44.663Z,2.64
2023-01-25T04:07:14.792Z,2.68
2023-01-25T04:09:44.948Z,2.72
2023-01-25T04:12:17.404Z,2.72
2023-01-25T04:14:47.122Z,2.70
2023-01-25T04:17:17.000Z,2.73
2023-01-25T04:19:46.854Z,2.72
2023-01-25T04:22:16.980Z,2.72
2023-01-25T04:24:46.988Z,2.71
2023-01-25T04:27:19.451Z,2.70
2023-01-25T04:29:49.446Z,2.72
2023-01-25T04:32:19.425Z,2.78
2023-01-25T04:34:49.301Z,2.82
2023-01-25T04:37:19.028Z,2.87
2023-01-25T04:39:48.909Z,2.87
2023-01-25T04:42:21.372Z,2.89
2023-01-25T04:44:51.198Z,2.87
2023-01-25T04:47:21.095Z,2.87
2023-01-25T04:49:51.129Z,2.86
2023-01-25T04:52:20.899Z,2.84
2023-01-25T04:54:50.691Z,2.73
2023-01-25T04:57:23.154Z,2.61
2023-01-25T04:59:52.963Z,2.58
2023-01-25T05:02:23.068Z,2.56
2023-01-25T05:04:53.115Z,2.49
2023-01-25T05:07:22.957Z,2.53
2023-01-25T05:09:53.128Z,2.59
2023-01-25T05:12:25.578Z,2.61
2023-01-25T05:14:55.962Z,2.62
2023-01-25T05:17:25.807Z,2.66
2023-01-25T05:19:55.644Z,2.61
2023-01-25T05:22:25.778Z,2.58
2023-01-25T05:24:55.829Z,2.55
2023-01-25T05:27:26.121Z,2.54
2023-01-25T05:29:56.161Z,2.44
2023-01-25T05:32:26.885Z,2.26
2023-01-25T05:34:56.692Z,2.22
2023-01-25T05:37:26.424Z,2.28
2023-01-25T05:39:56.509Z,2.34
2023-01-25T05:42:28.913Z,2.42
2023-01-25T05:44:58.718Z,2.46
2023-01-25T05:47:28.887Z,2.44
2023-01-25T05:49:58.698Z,2.47
2023-01-25T05:52:28.583Z,2.52
2023-01-25T05:54:58.636Z,2.57
2023-01-25T05:57:31.753Z,2.63
2023-01-25T06:00:01.510Z,2.66
2023-01-25T06:02:32.161Z,2.69
2023-01-25T06:05:02.013Z,2.62
2023-01-25T06:07:32.723Z,2.58
2023-01-25T06:10:02.810Z,2.55
2023-01-25T06:12:36.292Z,2.54
2023-01-25T06:15:07.175Z,2.55
2023-01-25T06:17:37.283Z,2.60
2023-01-25T06:20:08.074Z,2.59
2023-01-25T06:22:37.978Z,2.57
2023-01-25T06:25:09.392Z,2.48
2023-01-25T06:27:42.620Z,2.44
2023-01-25T06:30:14.164Z,2.43
2023-01-25T06:32:44.057Z,2.43
2023-01-25T06:35:13.816Z,2.48
2023-01-25T06:37:43.571Z,2.52
2023-01-25T06:40:15.008Z,2.55
2023-01-25T06:42:47.426Z,2.54
2023-01-25T06:45:17.772Z,2.57
2023-01-25T06:47:47.552Z,2.53
2023-01-25T06:50:18.241Z,2.50
2023-01-25T06:52:54.848Z,2.49
2023-01-25T06:55:24.881Z,2.53
2023-01-25T06:57:57.336Z,2.36
2023-01-25T07:00:27.364Z,2.24
2023-01-25T07:02:57.460Z,2.23
2023-01-25T07:05:27.281Z,2.28
2023-01-25T07:07:57.266Z,2.36
2023-01-25T07:10:26.964Z,2.39
2023-01-25T07:12:59.599Z,2.40
2023-01-25T07:15:29.375Z,2.43
2023-01-25T07:18:05.600Z,2.48
2023-01-25T07:20:42.369Z,2.51
2023-01-25T07:23:12.231Z,2.49
2023-01-25T07:25:47.021Z,2.40
2023-01-25T07:28:20.529Z,2.39
2023-01-25T07:30:50.449Z,2.25
2023-01-25T07:33:20.613Z,2.27
2023-01-25T07:35:51.124Z,2.33
2023-01-25T07:38:20.946Z,2.38
2023-01-25T07:40:55.320Z,2.42
2023-01-25T07:43:28.241Z,2.44
2023-01-25T07:46:03.905Z,2.46
2023-01-25T07:48:34.022Z,2.52
2023-01-25T07:51:23.061Z,2.55
2023-01-25T07:53:54.412Z,2.57
2023-01-25T07:56:25.385Z,2.60
2023-01-25T07:58:58.803Z,2.59
2023-01-25T08:01:31.253Z,2.58
2023-01-25T08:04:01.260Z,2.55
2023-01-25T08:06:36.101Z,2.54
2023-01-25T08:09:09.920Z,2.56
2023-01-25T08:11:42.675Z,2.59
2023-01-25T08:14:15.465Z,2.57
2023-01-25T08:16:45.267Z,2.60
2023-01-25T08:19:16.072Z,2.65
2023-01-25T08:21:46.087Z,2.62
2023-01-25T08:24:17.308Z,2.65
2023-01-25T08:26:48.109Z,2.66
2023-01-25T08:29:20.686Z,2.67
2023-01-25T08:31:50.587Z,2.67
2023-01-25T08:34:20.520Z,2.70
2023-01-25T08:39:20.656Z,2.63
2023-01-25T08:41:50.584Z,2.55
2023-01-25T08:44:28.807Z,2.53
2023-01-25T08:46:58.782Z,2.55
2023-01-25T08:49:28.791Z,2.56
2023-01-25T08:51:58.654Z,2.59
2023-01-25T08:54:28.435Z,2.65
2023-01-25T08:56:58.340Z,2.68
2023-01-25T08:59:30.977Z,2.71
2023-01-25T09:02:00.801Z,2.69
2023-01-25T09:04:30.888Z,2.68
2023-01-25T09:07:00.830Z,2.68
2023-01-25T09:09:30.800Z,2.68
2023-01-25T09:12:00.673Z,2.66
2023-01-25T09:14:33.464Z,2.65
2023-01-25T09:17:03.325Z,2.67
2023-01-25T09:19:33.262Z,2.72
2023-01-25T09:22:03.814Z,2.76
2023-01-25T09:24:36.897Z,2.79
2023-01-25T09:27:07.176Z,2.80
2023-01-25T09:29:43.708Z,2.78
2023-01-25T09:32:16.226Z,2.80
2023-01-25T09:34:46.090Z,2.77
2023-01-25T09:37:16.111Z,2.75
2023-01-25T09:39:46.302Z,2.73
2023-01-25T09:42:49.698Z,2.64
2023-01-25T09:45:32.279Z,2.67
2023-01-25T09:48:12.450Z,2.69
2023-01-25T09:50:53.033Z,2.70
2023-01-25T09:53:27.209Z,2.71
2023-01-25T09:56:00.385Z,2.74
2023-01-25T09:58:36.518Z,2.70
2023-01-25T10:01:32.838Z,2.65
2023-01-25T10:04:14.906Z,2.60
2023-01-25T10:06:55.242Z,2.62
2023-01-25T10:09:37.000Z,2.61
2023-01-25T10:12:14.285Z,2.68
2023-01-25T10:14:44.253Z,2.71
2023-01-25T10:17:27.108Z,2.74
2023-01-25T10:20:12.665Z,2.76
2023-01-25T10:22:50.100Z,2.75
2023-01-25T10:25:31.714Z,2.45
2023-01-25T10:28:29.858Z,2.48
2023-01-25T10:31:03.969Z,2.61
2023-01-25T10:33:41.970Z,2.67
2023-01-25T10:36:17.643Z,2.70
2023-01-25T10:38:49.712Z,2.73
2023-01-25T10:41:27.066Z,2.62
2023-01-25T10:44:21.872Z,2.63
2023-01-25T10:46:56.936Z,2.64
2023-01-25T10:49:37.440Z,2.66
2023-01-25T10:52:18.891Z,2.59
2023-01-25T10:54:50.374Z,2.64
2023-01-25T10:57:22.514Z,2.64
2023-01-25T10:59:55.434Z,2.69
2023-01-25T11:02:42.452Z,2.72
2023-01-25T11:05:31.572Z,2.75
2023-01-25T11:08:02.731Z,2.86
2023-01-25T11:10:36.358Z,2.85
2023-01-25T11:13:28.482Z,2.83
2023-01-25T11:16:16.897Z,2.89
2023-01-25T11:18:53.893Z,2.91
2023-01-25T11:21:28.534Z,2.97
2023-01-25T11:24:06.777Z,3.01
2023-01-25T11:26:37.814Z,3.01
2023-01-25T11:29:16.452Z,3.01
2023-01-25T11:31:49.285Z,3.04
2023-01-25T11:34:21.054Z,3.03
2023-01-25T11:37:25.585Z,2.99
2023-01-25T11:40:06.898Z,3.02
2023-01-25T11:42:46.816Z,2.98
2023-01-25T11:45:35.949Z,2.89
2023-01-25T11:48:27.178Z,2.71
2023-01-25T11:51:06.914Z,2.80
2023-01-25T11:54:18.708Z,2.79
2023-01-25T11:57:00.657Z,2.85
2023-01-25T11:59:53.372Z,2.91
2023-01-25T12:02:48.517Z,2.97
2023-01-25T12:05:29.219Z,3.02
2023-01-25T12:08:19.434Z,3.09
2023-01-25T12:10:59.085Z,3.11
2023-01-25T12:13:46.785Z,3.08
2023-01-25T12:16:36.405Z,3.10
2023-01-25T12:19:27.196Z,3.10
2023-01-25T12:22:11.786Z,3.10
2023-01-25T12:24:53.194Z,3.13
2023-01-25T12:27:34.329Z,3.11
2023-01-25T12:30:16.784Z,3.10
2023-01-25T12:32:57.281Z,3.10
2023-01-25T12:35:36.142Z,3.10
2023-01-25T12:38:07.826Z,3.13
2023-01-25T12:40:49.713Z,3.14
2023-01-25T12:43:27.191Z,3.15
2023-01-25T12:46:02.460Z,3.18
2023-01-25T12:48:37.482Z,3.04
2023-01-25T12:51:08.247Z,3.04
2023-01-25T12:53:42.470Z,3.02
2023-01-25T12:56:20.421Z,3.07
2023-01-25T12:58:57.875Z,3.11
2023-01-25T13:01:36.531Z,3.13
2023-01-25T13:04:28.783Z,3.12
2023-01-25T13:07:06.602Z,3.13
2023-01-25T13:09:42.625Z,3.09
2023-01-25T13:12:14.963Z,3.07
2023-01-25T13:14:45.267Z,3.03
2023-01-25T13:17:25.533Z,2.95
2023-01-25T13:19:56.259Z,2.97
2023-01-25T13:22:59.015Z,2.94
2023-01-25T13:25:30.541Z,2.97
2023-01-25T13:28:43.249Z,2.91
2023-01-25T13:31:13.467Z,3.01
2023-01-25T13:33:46.149Z,3.07
2023-01-25T13:36:41.578Z,3.06
2023-01-25T13:39:41.290Z,3.02
2023-01-25T13:42:23.795Z,3.06
2023-01-25T13:44:56.939Z,3.11
2023-01-25T13:47:29.008Z,3.13
2023-01-25T13:50:12.005Z,3.04
2023-01-25T13:52:42.180Z,3.07
2023-01-25T13:55:20.991Z,2.95
2023-01-25T13:57:51.642Z,2.95
2023-01-25T14:00:22.793Z,2.95
2023-01-25T14:02:58.021Z,2.95
2023-01-25T14:05:33.330Z,2.99
2023-01-25T14:08:03.402Z,3.04
2023-01-25T14:10:33.333Z,3.11
2023-01-25T14:13:03.963Z,3.16
2023-01-25T14:15:36.739Z,3.18
2023-01-25T14:18:18.998Z,3.15
2023-01-25T14:20:53.750Z,3.17
2023-01-25T14:23:28.255Z,3.16
2023-01-25T14:26:02.287Z,3.16
2023-01-25T14:28:33.510Z,3.10
2023-01-25T14:31:06.200Z,3.06
2023-01-25T14:33:44.576Z,3.06
2023-01-25T14:36:25.136Z,3.06
2023-01-25T14:38:55.998Z,3.02
2023-01-25T14:41:31.186Z,3.00
2023-01-25T14:44:05.192Z,3.03
2023-01-25T14:46:36.708Z,3.10
2023-01-25T14:49:11.232Z,3.11
2023-01-25T14:51:48.404Z,3.10
2023-01-25T14:54:22.582Z,3.13
2023-01-25T14:56:55.778Z,3.12
2023-01-25T14:59:34.063Z,3.08
2023-01-25T15:02:07.283Z,2.94
2023-01-25T15:04:37.395Z,2.94
2023-01-25T15:07:17.958Z,2.81
2023-01-25T15:10:05.052Z,2.74
2023-01-25T15:12:35.750Z,2.77
2023-01-25T15:15:06.133Z,2.78
2023-01-25T15:17:40.766Z,2.80
2023-01-25T15:20:30.450Z,2.80
2023-01-25T15:23:07.148Z,2.87
2023-01-25T15:25:37.125Z,2.90
2023-01-25T15:28:06.978Z,2.89
2023-01-25T15:30:36.853Z,2.91
2023-01-25T15:33:07.010Z,2.91
2023-01-25T15:35:37.652Z,2.89
2023-01-25T15:38:14.445Z,2.90
2023-01-25T15:40:44.818Z,2.92
2023-01-25T15:43:15.741Z,2.93
2023-01-25T15:45:47.398Z,2.92
2023-01-25T15:48:19.845Z,2.83
2023-01-25T15:50:50.104Z,2.82
2023-01-25T15:53:22.802Z,2.80
2023-01-25T15:55:56.860Z,2.84
2023-01-25T15:58:29.502Z,2.86
2023-01-25T16:01:00.520Z,2.83
2023-01-25T16:03:30.881Z,2.80
2023-01-25T16:06:02.325Z,2.82
2023-01-25T16:08:34.901Z,2.78
2023-01-25T16:11:04.798Z,2.79
2023-01-25T16:13:34.964Z,2.79
2023-01-25T16:16:04.894Z,2.78
2023-01-25T16:18:34.814Z,2.77
2023-01-25T16:21:04.590Z,2.75
2023-01-25T16:23:37.089Z,2.75
2023-01-25T16:26:07.793Z,2.71
2023-01-25T16:28:37.633Z,2.70
2023-01-25T16:31:07.545Z,2.73
2023-01-25T16:33:37.396Z,2.77
2023-01-25T16:36:17.240Z,2.78
2023-01-25T16:38:49.671Z,2.77
2023-01-25T16:41:19.924Z,2.76
2023-01-25T16:43:53.646Z,2.75
2023-01-25T16:46:26.340Z,2.72
2023-01-25T16:48:56.456Z,2.71
2023-01-25T16:51:28.332Z,2.69
2023-01-25T16:54:01.323Z,2.69
2023-01-25T16:56:33.538Z,2.70
2023-01-25T16:59:04.604Z,2.69
2023-01-25T17:01:34.962Z,2.71
2023-01-25T17:04:04.894Z,2.73
2023-01-25T17:06:36.731Z,2.75
2023-01-25T17:09:22.185Z,2.74
2023-01-25T17:11:53.099Z,2.73
2023-01-25T17:14:23.346Z,2.74
2023-01-25T17:16:54.042Z,2.75
2023-01-25T17:19:23.983Z,2.73
2023-01-25T17:21:53.889Z,2.69
2023-01-25T17:24:26.431Z,2.67
2023-01-25T17:26:59.737Z,2.59
2023-01-25T17:29:29.912Z,2.56
2023-01-25T17:32:00.497Z,2.57
2023-01-25T17:34:30.418Z,2.58
2023-01-25T17:37:00.514Z,2.57
2023-01-25T17:39:33.380Z,2.56
2023-01-25T17:42:03.181Z,2.57
2023-01-25T17:44:33.028Z,2.60
2023-01-25T17:47:02.940Z,2.57
2023-01-25T17:49:33.738Z,2.57
2023-01-25T17:52:04.804Z,2.52
2023-01-25T17:54:37.607Z,2.49
2023-01-25T17:57:07.436Z,2.51
2023-01-25T17:59:37.334Z,2.52
2023-01-25T18:02:07.529Z,2.48
2023-01-25T18:04:37.602Z,2.46
2023-01-25T18:07:07.433Z,2.45
2023-01-25T18:09:39.798Z,2.40
2023-01-25T18:12:10.141Z,2.31
2023-01-25T18:14:40.076Z,2.26
2023-01-25T18:17:09.971Z,2.27
2023-01-25T18:19:40.299Z,2.28
2023-01-25T18:22:10.107Z,2.27
2023-01-25T18:24:42.802Z,2.26
2023-01-25T18:27:21.745Z,2.26
2023-01-25T18:29:57.360Z,2.27
2023-01-25T18:32:27.201Z,2.29
2023-01-25T18:34:57.304Z,2.24
2023-01-25T18:37:33.479Z,2.20
2023-01-25T18:40:06.064Z,2.20
2023-01-25T18:42:35.812Z,2.19
2023-01-25T18:45:06.312Z,2.17
2023-01-25T18:47:36.765Z,2.18
2023-01-25T18:50:07.399Z,2.16
2023-01-25T18:52:38.081Z,2.19
2023-01-25T18:55:11.482Z,2.20
2023-01-25T18:57:41.787Z,2.17
2023-01-25T19:00:15.098Z,2.12
2023-01-25T19:02:45.068Z,2.07
2023-01-25T19:05:18.647Z,2.08
2023-01-25T19:07:48.356Z,2.08
2023-01-25T19:10:21.578Z,2.07
2023-01-25T19:12:51.427Z,2.07
2023-01-25T19:15:21.189Z,2.10
2023-01-25T19:17:50.909Z,2.09
2023-01-25T19:20:21.587Z,2.07
2023-01-25T19:22:51.470Z,2.06
2023-01-25T19:25:24.537Z,2.05
2023-01-25T19:27:54.721Z,2.08
2023-01-25T19:30:24.696Z,2.11
2023-01-25T19:32:54.414Z,2.12
2023-01-25T19:35:24.181Z,2.03
2023-01-25T19:37:54.059Z,2.03
2023-01-25T19:40:26.451Z,2.03
2023-01-25T19:42:56.346Z,2.04
2023-01-25T19:45:26.295Z,2.05
2023-01-25T19:47:56.492Z,2.01
2023-01-25T19:50:26.480Z,2.02
2023-01-25T19:52:58.036Z,2.02
2023-01-25T19:55:30.747Z,2.03
2023-01-25T19:58:00.477Z,2.06
2023-01-25T20:00:30.412Z,2.06
2023-01-25T20:03:14.821Z,2.08
2023-01-25T20:05:45.925Z,2.08
2023-01-25T20:08:15.727Z,2.09
2023-01-25T20:10:48.597Z,2.10
2023-01-25T20:13:18.381Z,2.12
2023-01-25T20:15:51.188Z,2.09
2023-01-25T20:18:21.710Z,2.06
2023-01-25T20:20:58.220Z,2.04
2023-01-25T20:23:28.321Z,2.01
2023-01-25T20:26:05.924Z,1.95
2023-01-25T20:28:37.405Z,1.96
2023-01-25T20:31:07.891Z,1.97
2023-01-25T20:33:38.015Z,1.97
2023-01-25T20:36:09.173Z,1.94
2023-01-25T20:38:39.630Z,1.95
2023-01-25T20:41:14.266Z,1.96
2023-01-25T20:43:49.237Z,1.98
2023-01-25T20:46:19.639Z,1.84
2023-01-25T20:48:49.744Z,1.79
2023-01-25T20:51:21.641Z,1.81
2023-01-25T20:53:54.592Z,1.82
2023-01-25T20:56:27.072Z,1.83
2023-01-25T20:58:57.451Z,1.83
2023-01-25T21:01:30.453Z,1.83
2023-01-25T21:04:01.034Z,1.83
2023-01-25T21:06:31.362Z,1.85
2023-01-25T21:09:01.270Z,1.82
2023-01-25T21:11:33.889Z,1.78
2023-01-25T21:14:03.930Z,1.76
2023-01-25T21:16:33.868Z,1.78
2023-01-25T21:19:08.464Z,1.81
2023-01-25T21:21:38.698Z,1.82
2023-01-25T21:24:09.859Z,1.80
2023-01-25T21:26:43.571Z,1.77
2023-01-25T21:29:13.418Z,1.72
2023-01-25T21:31:46.478Z,1.63
2023-01-25T21:34:16.293Z,1.63
2023-01-25T21:36:46.086Z,1.66
2023-01-25T21:39:16.048Z,1.65
2023-01-25T21:41:48.574Z,1.68
2023-01-25T21:44:30.942Z,1.71
2023-01-25T21:47:28.478Z,1.65
2023-01-25T21:50:02.852Z,1.61
2023-01-25T21:52:34.645Z,1.57
2023-01-25T21:55:05.748Z,1.53
2023-01-25T21:57:41.031Z,1.54
2023-01-25T22:00:12.628Z,1.53
2023-01-25T22:02:42.701Z,1.55
2023-01-25T22:05:12.908Z,1.56
2023-01-25T22:07:42.652Z,1.59
2023-01-25T22:10:13.977Z,1.57
2023-01-25T22:12:46.439Z,1.54
2023-01-25T22:15:16.435Z,1.57
2023-01-25T22:17:46.318Z,1.61
2023-01-25T22:20:16.219Z,1.59
2023-01-25T22:22:45.922Z,1.59
2023-01-25T22:25:15.664Z,1.62
2023-01-25T22:27:56.083Z,1.65
2023-01-25T22:30:26.020Z,1.72
2023-01-25T22:32:55.818Z,1.74
2023-01-25T22:35:25.660Z,1.77
2023-01-25T22:37:55.680Z,1.76
2023-01-25T22:40:25.450Z,1.74
2023-01-25T22:42:57.868Z,1.68
2023-01-25T22:45:27.708Z,1.66
2023-01-25T22:47:57.477Z,1.64
2023-01-25T22:50:27.217Z,1.62
2023-01-25T22:52:56.906Z,1.61
2023-01-25T22:55:26.789Z,1.62
2023-01-25T22:57:59.096Z,1.57
2023-01-25T23:00:29.151Z,1.54
2023-01-25T23:02:59.121Z,1.54
2023-01-25T23:05:29.955Z,1.55
2023-01-25T23:08:00.443Z,1.56
2023-01-25T23:10:30.248Z,1.56
2023-01-25T23:13:02.583Z,1.49
2023-01-25T23:15:32.655Z,1.49
2023-01-25T23:18:14.874Z,1.37
2023-01-25T23:20:44.939Z,1.29
2023-01-25T23:23:15.173Z,1.28
2023-01-25T23:25:44.945Z,1.32
2023-01-25T23:28:17.771Z,1.37
2023-01-25T23:30:47.631Z,1.38
2023-01-25T23:33:17.500Z,1.36
2023-01-25T23:35:47.292Z,1.36
2023-01-25T23:38:17.762Z,1.34
2023-01-25T23:40:47.635Z,1.27
2023-01-25T23:43:19.955Z,1.28
2023-01-25T23:45:49.693Z,1.27
2023-01-25T23:48:19.365Z,1.28
2023-01-25T23:50:49.089Z,1.34
2023-01-25T23:53:18.853Z,1.36
2023-01-25T23:55:55.098Z,1.33
2023-01-25T23:58:28.363Z,1.22
